sensor_id;sensor_type;location;lat;lon;timestamp;temperature;humidity
31783;DHT22;18351;47.560;9.708;2023-02-17T00:01:24;7.50;99.90
31783;DHT22;18351;47.560;9.708;2023-02-17T00:03:50;7.60;99.90
31783;DHT22;18351;47.560;9.708;2023-02-17T00:06:19;7.60;99.80
31783;DHT22;18351;47.560;9.708;2023-02-17T00:08:45;7.60;99.80
31783;DHT22;18351;47.560;9.708;2023-02-17T00:11:11;7.60;99.60
31783;DHT22;18351;47.560;9.708;2023-02-17T00:13:37;7.60;99.50
31783;DHT22;18351;47.560;9.708;2023-02-17T00:16:11;7.60;99.30
31783;DHT22;18351;47.560;9.708;2023-02-17T00:18:37;7.60;98.80
31783;DHT22;18351;47.560;9.708;2023-02-17T00:21:14;7.60;99.30
31783;DHT22;18351;47.560;9.708;2023-02-17T00:23:41;7.70;99.10
31783;DHT22;18351;47.560;9.708;2023-02-17T00:26:07;7.60;99.40
31783;DHT22;18351;47.560;9.708;2023-02-17T00:28:33;7.60;99.50
31783;DHT22;18351;47.560;9.708;2023-02-17T00:31:03;7.60;99.70
31783;DHT22;18351;47.560;9.708;2023-02-17T00:33:29;7.60;99.90
31783;DHT22;18351;47.560;9.708;2023-02-17T00:35:54;7.60;99.90
31783;DHT22;18351;47.560;9.708;2023-02-17T00:38:20;7.60;99.90
31783;DHT22;18351;47.560;9.708;2023-02-17T00:40:45;8.50;99.90
31783;DHT22;18351;47.560;9.708;2023-02-17T00:43:11;7.50;99.90
31783;DHT22;18351;47.560;9.708;2023-02-17T00:45:38;7.50;99.90
31783;DHT22;18351;47.560;9.708;2023-02-17T00:48:03;7.50;99.80
31783;DHT22;18351;47.560;9.708;2023-02-17T00:50:29;7.50;99.60
31783;DHT22;18351;47.560;9.708;2023-02-17T00:52:54;7.50;99.60
31783;DHT22;18351;47.560;9.708;2023-02-17T00:55:20;7.50;99.40
31783;DHT22;18351;47.560;9.708;2023-02-17T00:57:45;7.50;99.40
31783;DHT22;18351;47.560;9.708;2023-02-17T01:00:11;7.60;98.90
31783;DHT22;18351;47.560;9.708;2023-02-17T01:02:37;7.60;99.00
31783;DHT22;18351;47.560;9.708;2023-02-17T01:05:03;7.60;98.80
31783;DHT22;18351;47.560;9.708;2023-02-17T01:07:28;7.60;98.50
31783;DHT22;18351;47.560;9.708;2023-02-17T01:09:54;7.60;98.10
31783;DHT22;18351;47.560;9.708;2023-02-17T01:12:19;7.60;98.10
31783;DHT22;18351;47.560;9.708;2023-02-17T01:14:46;7.60;97.80
31783;DHT22;18351;47.560;9.708;2023-02-17T01:17:12;7.60;98.30
31783;DHT22;18351;47.560;9.708;2023-02-17T01:19:37;7.70;98.20
31783;DHT22;18351;47.560;9.708;2023-02-17T01:22:03;7.60;98.00
31783;DHT22;18351;47.560;9.708;2023-02-17T01:24:28;7.60;98.20
31783;DHT22;18351;47.560;9.708;2023-02-17T01:26:54;7.60;98.10
31783;DHT22;18351;47.560;9.708;2023-02-17T01:29:19;7.60;97.90
31783;DHT22;18351;47.560;9.708;2023-02-17T01:31:45;7.60;97.60
31783;DHT22;18351;47.560;9.708;2023-02-17T01:34:11;7.60;97.90
31783;DHT22;18351;47.560;9.708;2023-02-17T01:36:36;7.60;97.70
31783;DHT22;18351;47.560;9.708;2023-02-17T01:39:02;7.60;97.90
31783;DHT22;18351;47.560;9.708;2023-02-17T01:41:28;7.70;97.80
31783;DHT22;18351;47.560;9.708;2023-02-17T01:44:11;7.60;98.20
31783;DHT22;18351;47.560;9.708;2023-02-17T01:46:39;7.50;98.50
31783;DHT22;18351;47.560;9.708;2023-02-17T01:49:14;7.50;98.00
31783;DHT22;18351;47.560;9.708;2023-02-17T01:51:41;7.50;98.20
31783;DHT22;18351;47.560;9.708;2023-02-17T01:55:02;7.60;97.80
31783;DHT22;18351;47.560;9.708;2023-02-17T01:57:09;7.60;97.70
31783;DHT22;18351;47.560;9.708;2023-02-17T01:59:36;7.60;97.60
31783;DHT22;18351;47.560;9.708;2023-02-17T02:02:02;7.60;97.50
31783;DHT22;18351;47.560;9.708;2023-02-17T02:04:34;7.60;97.50
31783;DHT22;18351;47.560;9.708;2023-02-17T02:07:01;7.70;97.50
31783;DHT22;18351;47.560;9.708;2023-02-17T02:09:35;7.70;97.00
31783;DHT22;18351;47.560;9.708;2023-02-17T02:12:01;7.70;96.80
31783;DHT22;18351;47.560;9.708;2023-02-17T02:14:27;7.80;97.20
31783;DHT22;18351;47.560;9.708;2023-02-17T02:16:57;7.80;96.80
31783;DHT22;18351;47.560;9.708;2023-02-17T02:19:45;7.80;96.50
31783;DHT22;18351;47.560;9.708;2023-02-17T02:31:05;7.70;96.80
31783;DHT22;18351;47.560;9.708;2023-02-17T02:33:49;7.70;96.50
31783;DHT22;18351;47.560;9.708;2023-02-17T02:36:36;7.70;96.30
31783;DHT22;18351;47.560;9.708;2023-02-17T02:39:20;7.80;96.30
31783;DHT22;18351;47.560;9.708;2023-02-17T02:42:04;7.80;96.50
31783;DHT22;18351;47.560;9.708;2023-02-17T02:44:31;7.80;96.70
31783;DHT22;18351;47.560;9.708;2023-02-17T02:46:57;7.80;96.80
31783;DHT22;18351;47.560;9.708;2023-02-17T02:49:23;7.80;96.80
31783;DHT22;18351;47.560;9.708;2023-02-17T02:55:00;7.80;96.90
31783;DHT22;18351;47.560;9.708;2023-02-17T02:57:52;7.70;96.50
31783;DHT22;18351;47.560;9.708;2023-02-17T03:00:40;7.70;96.40
31783;DHT22;18351;47.560;9.708;2023-02-17T03:03:15;7.70;96.30
31783;DHT22;18351;47.560;9.708;2023-02-17T03:10:54;7.80;96.00
31783;DHT22;18351;47.560;9.708;2023-02-17T03:13:21;7.80;95.90
31783;DHT22;18351;47.560;9.708;2023-02-17T03:15:47;7.80;96.00
31783;DHT22;18351;47.560;9.708;2023-02-17T03:18:12;7.80;96.10
31783;DHT22;18351;47.560;9.708;2023-02-17T03:20:53;7.80;96.40
31783;DHT22;18351;47.560;9.708;2023-02-17T03:23:19;7.80;96.30
31783;DHT22;18351;47.560;9.708;2023-02-17T03:25:44;7.80;95.90
31783;DHT22;18351;47.560;9.708;2023-02-17T03:28:12;7.90;96.20
31783;DHT22;18351;47.560;9.708;2023-02-17T03:30:37;7.90;95.80
31783;DHT22;18351;47.560;9.708;2023-02-17T03:33:03;7.90;95.80
31783;DHT22;18351;47.560;9.708;2023-02-17T03:35:29;7.80;96.00
31783;DHT22;18351;47.560;9.708;2023-02-17T03:37:54;7.90;96.00
31783;DHT22;18351;47.560;9.708;2023-02-17T03:40:20;7.90;95.90
31783;DHT22;18351;47.560;9.708;2023-02-17T03:42:45;7.90;95.80
31783;DHT22;18351;47.560;9.708;2023-02-17T03:45:11;7.90;95.90
31783;DHT22;18351;47.560;9.708;2023-02-17T03:47:36;7.90;95.70
31783;DHT22;18351;47.560;9.708;2023-02-17T03:50:02;7.90;95.60
31783;DHT22;18351;47.560;9.708;2023-02-17T03:52:27;7.90;95.70
31783;DHT22;18351;47.560;9.708;2023-02-17T03:54:53;7.90;96.10
31783;DHT22;18351;47.560;9.708;2023-02-17T03:57:18;7.90;96.40
31783;DHT22;18351;47.560;9.708;2023-02-17T03:59:44;7.90;96.80
31783;DHT22;18351;47.560;9.708;2023-02-17T04:02:09;7.90;97.30
31783;DHT22;18351;47.560;9.708;2023-02-17T04:04:35;7.90;97.70
31783;DHT22;18351;47.560;9.708;2023-02-17T04:07:01;7.80;97.80
31783;DHT22;18351;47.560;9.708;2023-02-17T04:09:27;7.80;97.70
31783;DHT22;18351;47.560;9.708;2023-02-17T04:14:20;7.80;98.00
31783;DHT22;18351;47.560;9.708;2023-02-17T04:16:46;7.80;98.10
31783;DHT22;18351;47.560;9.708;2023-02-17T04:19:11;7.80;98.30
31783;DHT22;18351;47.560;9.708;2023-02-17T04:21:37;7.80;97.60
31783;DHT22;18351;47.560;9.708;2023-02-17T04:24:03;7.80;97.60
31783;DHT22;18351;47.560;9.708;2023-02-17T04:26:29;7.80;97.40
31783;DHT22;18351;47.560;9.708;2023-02-17T04:28:54;7.80;97.20
31783;DHT22;18351;47.560;9.708;2023-02-17T04:31:20;7.80;96.70
31783;DHT22;18351;47.560;9.708;2023-02-17T04:33:46;7.80;97.00
31783;DHT22;18351;47.560;9.708;2023-02-17T04:36:12;7.80;96.80
31783;DHT22;18351;47.560;9.708;2023-02-17T04:38:38;7.80;96.70
31783;DHT22;18351;47.560;9.708;2023-02-17T04:41:04;7.80;96.80
31783;DHT22;18351;47.560;9.708;2023-02-17T04:43:30;7.80;96.60
31783;DHT22;18351;47.560;9.708;2023-02-17T04:45:56;7.80;96.10
31783;DHT22;18351;47.560;9.708;2023-02-17T04:48:22;7.80;96.00
31783;DHT22;18351;47.560;9.708;2023-02-17T04:50:47;7.80;96.50
31783;DHT22;18351;47.560;9.708;2023-02-17T04:53:13;7.80;96.50
31783;DHT22;18351;47.560;9.708;2023-02-17T04:55:40;7.80;96.10
31783;DHT22;18351;47.560;9.708;2023-02-17T04:58:05;7.80;96.00
31783;DHT22;18351;47.560;9.708;2023-02-17T05:00:31;7.80;95.80
31783;DHT22;18351;47.560;9.708;2023-02-17T05:02:57;7.80;97.10
31783;DHT22;18351;47.560;9.708;2023-02-17T05:05:22;7.70;97.90
31783;DHT22;18351;47.560;9.708;2023-02-17T05:07:48;7.70;98.00
31783;DHT22;18351;47.560;9.708;2023-02-17T05:10:15;7.70;98.30
31783;DHT22;18351;47.560;9.708;2023-02-17T05:12:40;7.70;98.20
31783;DHT22;18351;47.560;9.708;2023-02-17T05:15:07;7.80;99.90
31783;DHT22;18351;47.560;9.708;2023-02-17T05:17:33;7.70;99.90
31783;DHT22;18351;47.560;9.708;2023-02-17T05:19:59;7.70;99.90
31783;DHT22;18351;47.560;9.708;2023-02-17T05:22:25;7.60;99.90
31783;DHT22;18351;47.560;9.708;2023-02-17T05:24:51;7.60;99.90
31783;DHT22;18351;47.560;9.708;2023-02-17T05:27:17;7.60;99.90
31783;DHT22;18351;47.560;9.708;2023-02-17T05:29:42;7.50;99.90
31783;DHT22;18351;47.560;9.708;2023-02-17T05:32:08;7.50;99.90
31783;DHT22;18351;47.560;9.708;2023-02-17T05:34:34;7.40;99.90
31783;DHT22;18351;47.560;9.708;2023-02-17T05:37:00;7.50;99.90
31783;DHT22;18351;47.560;9.708;2023-02-17T05:39:25;7.50;99.90
31783;DHT22;18351;47.560;9.708;2023-02-17T05:41:51;7.60;99.90
31783;DHT22;18351;47.560;9.708;2023-02-17T05:44:17;7.60;99.90
31783;DHT22;18351;47.560;9.708;2023-02-17T05:46:42;7.60;99.90
31783;DHT22;18351;47.560;9.708;2023-02-17T05:49:08;7.60;98.70
31783;DHT22;18351;47.560;9.708;2023-02-17T05:51:34;7.70;98.50
31783;DHT22;18351;47.560;9.708;2023-02-17T05:53:59;7.70;98.30
31783;DHT22;18351;47.560;9.708;2023-02-17T05:56:25;7.60;99.50
31783;DHT22;18351;47.560;9.708;2023-02-17T05:58:50;7.60;98.90
31783;DHT22;18351;47.560;9.708;2023-02-17T06:01:16;7.70;98.70
31783;DHT22;18351;47.560;9.708;2023-02-17T06:03:41;7.70;98.00
31783;DHT22;18351;47.560;9.708;2023-02-17T06:06:07;7.70;98.10
31783;DHT22;18351;47.560;9.708;2023-02-17T06:08:33;7.70;98.40
31783;DHT22;18351;47.560;9.708;2023-02-17T06:10:59;7.70;98.40
31783;DHT22;18351;47.560;9.708;2023-02-17T06:13:25;7.70;97.70
31783;DHT22;18351;47.560;9.708;2023-02-17T06:15:50;7.70;97.90
31783;DHT22;18351;47.560;9.708;2023-02-17T06:18:16;7.80;97.90
31783;DHT22;18351;47.560;9.708;2023-02-17T06:20:41;7.80;97.90
31783;DHT22;18351;47.560;9.708;2023-02-17T06:23:07;7.80;97.70
31783;DHT22;18351;47.560;9.708;2023-02-17T06:25:33;7.80;97.40
31783;DHT22;18351;47.560;9.708;2023-02-17T06:27:58;7.80;97.40
31783;DHT22;18351;47.560;9.708;2023-02-17T06:30:24;7.90;97.60
31783;DHT22;18351;47.560;9.708;2023-02-17T06:32:49;7.80;97.60
31783;DHT22;18351;47.560;9.708;2023-02-17T06:35:15;7.90;98.10
31783;DHT22;18351;47.560;9.708;2023-02-17T06:37:41;7.80;98.80
31783;DHT22;18351;47.560;9.708;2023-02-17T06:40:07;7.80;99.10
31783;DHT22;18351;47.560;9.708;2023-02-17T06:42:33;7.80;97.40
31783;DHT22;18351;47.560;9.708;2023-02-17T06:44:58;7.80;98.30
31783;DHT22;18351;47.560;9.708;2023-02-17T06:47:25;7.80;98.70
31783;DHT22;18351;47.560;9.708;2023-02-17T06:49:50;7.80;99.90
31783;DHT22;18351;47.560;9.708;2023-02-17T06:52:16;7.80;99.20
31783;DHT22;18351;47.560;9.708;2023-02-17T06:54:42;7.80;97.50
31783;DHT22;18351;47.560;9.708;2023-02-17T06:57:07;7.90;97.10
31783;DHT22;18351;47.560;9.708;2023-02-17T06:59:33;7.90;97.10
31783;DHT22;18351;47.560;9.708;2023-02-17T07:01:59;8.00;96.80
31783;DHT22;18351;47.560;9.708;2023-02-17T07:04:24;8.00;97.00
31783;DHT22;18351;47.560;9.708;2023-02-17T07:06:50;8.10;96.90
31783;DHT22;18351;47.560;9.708;2023-02-17T07:09:15;8.20;96.10
31783;DHT22;18351;47.560;9.708;2023-02-17T07:11:41;8.20;96.00
31783;DHT22;18351;47.560;9.708;2023-02-17T07:14:08;8.20;95.90
31783;DHT22;18351;47.560;9.708;2023-02-17T07:16:34;8.30;95.60
31783;DHT22;18351;47.560;9.708;2023-02-17T07:18:59;8.30;95.50
31783;DHT22;18351;47.560;9.708;2023-02-17T07:21:25;8.30;95.40
31783;DHT22;18351;47.560;9.708;2023-02-17T07:23:50;8.40;94.50
31783;DHT22;18351;47.560;9.708;2023-02-17T07:26:16;8.60;94.60
31783;DHT22;18351;47.560;9.708;2023-02-17T07:28:42;8.60;93.80
31783;DHT22;18351;47.560;9.708;2023-02-17T07:31:13;8.60;94.20
31783;DHT22;18351;47.560;9.708;2023-02-17T07:33:40;8.80;94.50
31783;DHT22;18351;47.560;9.708;2023-02-17T07:36:07;8.80;93.90
31783;DHT22;18351;47.560;9.708;2023-02-17T07:38:33;8.90;93.60
31783;DHT22;18351;47.560;9.708;2023-02-17T07:41:06;8.90;94.00
31783;DHT22;18351;47.560;9.708;2023-02-17T07:43:32;8.90;94.60
31783;DHT22;18351;47.560;9.708;2023-02-17T07:45:58;8.90;92.90
31783;DHT22;18351;47.560;9.708;2023-02-17T07:48:23;9.00;93.50
31783;DHT22;18351;47.560;9.708;2023-02-17T07:50:49;9.00;94.10
31783;DHT22;18351;47.560;9.708;2023-02-17T07:53:14;9.00;95.00
31783;DHT22;18351;47.560;9.708;2023-02-17T07:55:40;9.10;94.20
31783;DHT22;18351;47.560;9.708;2023-02-17T07:58:05;9.10;94.50
31783;DHT22;18351;47.560;9.708;2023-02-17T08:00:31;9.00;95.40
31783;DHT22;18351;47.560;9.708;2023-02-17T08:02:58;9.00;95.50
31783;DHT22;18351;47.560;9.708;2023-02-17T08:05:24;9.00;92.90
31783;DHT22;18351;47.560;9.708;2023-02-17T08:07:49;9.00;93.40
31783;DHT22;18351;47.560;9.708;2023-02-17T08:10:36;9.00;93.40
31783;DHT22;18351;47.560;9.708;2023-02-17T08:13:21;9.10;92.90
31783;DHT22;18351;47.560;9.708;2023-02-17T08:15:47;9.10;92.90
31783;DHT22;18351;47.560;9.708;2023-02-17T08:18:12;9.10;93.20
31783;DHT22;18351;47.560;9.708;2023-02-17T08:20:38;9.20;93.40
31783;DHT22;18351;47.560;9.708;2023-02-17T08:23:03;9.10;93.50
31783;DHT22;18351;47.560;9.708;2023-02-17T08:25:34;9.20;92.70
31783;DHT22;18351;47.560;9.708;2023-02-17T08:28:00;9.20;93.10
31783;DHT22;18351;47.560;9.708;2023-02-17T08:30:26;9.20;92.70
31783;DHT22;18351;47.560;9.708;2023-02-17T08:32:51;9.20;92.30
31783;DHT22;18351;47.560;9.708;2023-02-17T08:35:17;9.30;92.60
31783;DHT22;18351;47.560;9.708;2023-02-17T08:37:49;9.30;92.80
31783;DHT22;18351;47.560;9.708;2023-02-17T08:40:15;9.40;92.60
31783;DHT22;18351;47.560;9.708;2023-02-17T08:42:41;9.40;92.90
31783;DHT22;18351;47.560;9.708;2023-02-17T08:45:07;9.50;93.60
31783;DHT22;18351;47.560;9.708;2023-02-17T08:47:34;9.50;93.20
31783;DHT22;18351;47.560;9.708;2023-02-17T08:49:59;9.60;92.70
31783;DHT22;18351;47.560;9.708;2023-02-17T08:52:25;9.60;92.90
31783;DHT22;18351;47.560;9.708;2023-02-17T08:54:50;9.70;91.80
31783;DHT22;18351;47.560;9.708;2023-02-17T08:57:17;9.70;91.50
31783;DHT22;18351;47.560;9.708;2023-02-17T08:59:43;9.80;92.00
31783;DHT22;18351;47.560;9.708;2023-02-17T09:02:12;9.90;91.30
31783;DHT22;18351;47.560;9.708;2023-02-17T09:04:38;10.00;91.50
31783;DHT22;18351;47.560;9.708;2023-02-17T09:07:04;10.10;91.50
31783;DHT22;18351;47.560;9.708;2023-02-17T09:09:33;10.20;91.10
31783;DHT22;18351;47.560;9.708;2023-02-17T09:11:59;10.30;92.30
31783;DHT22;18351;47.560;9.708;2023-02-17T09:14:25;10.40;91.00
31783;DHT22;18351;47.560;9.708;2023-02-17T09:16:51;10.40;91.40
31783;DHT22;18351;47.560;9.708;2023-02-17T09:19:17;10.40;90.50
31783;DHT22;18351;47.560;9.708;2023-02-17T09:21:43;10.40;91.10
31783;DHT22;18351;47.560;9.708;2023-02-17T09:24:08;10.30;90.60
31783;DHT22;18351;47.560;9.708;2023-02-17T09:26:34;10.20;90.40
31783;DHT22;18351;47.560;9.708;2023-02-17T09:29:01;10.20;90.00
31783;DHT22;18351;47.560;9.708;2023-02-17T09:31:28;10.10;90.00
31783;DHT22;18351;47.560;9.708;2023-02-17T09:33:53;10.10;90.60
31783;DHT22;18351;47.560;9.708;2023-02-17T09:36:22;10.10;91.10
31783;DHT22;18351;47.560;9.708;2023-02-17T09:38:49;10.10;90.70
31783;DHT22;18351;47.560;9.708;2023-02-17T09:41:40;10.20;90.60
31783;DHT22;18351;47.560;9.708;2023-02-17T09:44:22;10.30;88.50
31783;DHT22;18351;47.560;9.708;2023-02-17T09:47:03;10.50;89.70
31783;DHT22;18351;47.560;9.708;2023-02-17T09:49:49;10.60;89.10
31783;DHT22;18351;47.560;9.708;2023-02-17T09:55:06;10.70;87.60
31783;DHT22;18351;47.560;9.708;2023-02-17T09:57:45;10.80;85.30
31783;DHT22;18351;47.560;9.708;2023-02-17T10:00:18;10.70;85.80
31783;DHT22;18351;47.560;9.708;2023-02-17T10:05:19;10.60;84.40
31783;DHT22;18351;47.560;9.708;2023-02-17T10:07:52;10.60;82.30
31783;DHT22;18351;47.560;9.708;2023-02-17T10:10:24;10.70;82.70
31783;DHT22;18351;47.560;9.708;2023-02-17T10:12:55;10.70;81.30
31783;DHT22;18351;47.560;9.708;2023-02-17T10:15:25;10.80;81.80
31783;DHT22;18351;47.560;9.708;2023-02-17T10:18:02;11.00;82.10
31783;DHT22;18351;47.560;9.708;2023-02-17T10:20:43;11.00;81.00
31783;DHT22;18351;47.560;9.708;2023-02-17T10:31:19;11.10;81.60
31783;DHT22;18351;47.560;9.708;2023-02-17T10:34:00;11.10;79.40
31783;DHT22;18351;47.560;9.708;2023-02-17T10:41:54;11.20;79.30
31783;DHT22;18351;47.560;9.708;2023-02-17T10:44:22;11.20;79.40
31783;DHT22;18351;47.560;9.708;2023-02-17T10:46:50;11.20;77.20
31783;DHT22;18351;47.560;9.708;2023-02-17T10:49:26;11.30;79.50
31783;DHT22;18351;47.560;9.708;2023-02-17T10:51:53;11.20;79.70
31783;DHT22;18351;47.560;9.708;2023-02-17T10:54:40;12.00;79.20
31783;DHT22;18351;47.560;9.708;2023-02-17T10:57:08;11.90;78.30
31783;DHT22;18351;47.560;9.708;2023-02-17T10:59:42;11.90;77.90
31783;DHT22;18351;47.560;9.708;2023-02-17T11:04:45;11.20;78.60
31783;DHT22;18351;47.560;9.708;2023-02-17T11:07:13;12.00;79.80
31783;DHT22;18351;47.560;9.708;2023-02-17T11:09:48;12.30;80.50
31783;DHT22;18351;47.560;9.708;2023-02-17T11:12:25;11.30;80.00
31783;DHT22;18351;47.560;9.708;2023-02-17T11:14:53;11.30;80.40
31783;DHT22;18351;47.560;9.708;2023-02-17T11:17:36;12.40;81.70
31783;DHT22;18351;47.560;9.708;2023-02-17T11:20:26;12.60;84.00
31783;DHT22;18351;47.560;9.708;2023-02-17T11:25:34;11.40;82.90
31783;DHT22;18351;47.560;9.708;2023-02-17T11:28:05;11.50;82.70
31783;DHT22;18351;47.560;9.708;2023-02-17T11:30:32;11.50;83.50
31783;DHT22;18351;47.560;9.708;2023-02-17T11:33:09;11.60;84.00
31783;DHT22;18351;47.560;9.708;2023-02-17T11:38:03;12.80;82.00
31783;DHT22;18351;47.560;9.708;2023-02-17T11:40:34;12.50;83.70
31783;DHT22;18351;47.560;9.708;2023-02-17T11:43:01;12.80;83.30
31783;DHT22;18351;47.560;9.708;2023-02-17T11:45:33;12.00;82.60
31783;DHT22;18351;47.560;9.708;2023-02-17T11:48:06;12.90;81.70
31783;DHT22;18351;47.560;9.708;2023-02-17T11:51:22;12.90;81.60
31783;DHT22;18351;47.560;9.708;2023-02-17T11:54:19;11.90;80.10
31783;DHT22;18351;47.560;9.708;2023-02-17T12:02:08;12.20;82.10
31783;DHT22;18351;47.560;9.708;2023-02-17T12:05:03;12.40;82.00
31783;DHT22;18351;47.560;9.708;2023-02-17T12:10:15;13.10;82.30
31783;DHT22;18351;47.560;9.708;2023-02-17T12:21:11;12.60;81.20
31783;DHT22;18351;47.560;9.708;2023-02-17T12:29:23;12.80;79.50
31783;DHT22;18351;47.560;9.708;2023-02-17T12:32:13;12.90;79.60
31783;DHT22;18351;47.560;9.708;2023-02-17T12:37:22;13.10;80.50
31783;DHT22;18351;47.560;9.708;2023-02-17T12:40:04;13.60;81.00
31783;DHT22;18351;47.560;9.708;2023-02-17T12:42:36;13.20;81.90
31783;DHT22;18351;47.560;9.708;2023-02-17T12:45:29;13.20;82.20
31783;DHT22;18351;47.560;9.708;2023-02-17T12:48:12;13.10;83.50
31783;DHT22;18351;47.560;9.708;2023-02-17T12:51:43;13.20;88.50
31783;DHT22;18351;47.560;9.708;2023-02-17T12:58:51;13.70;90.60
31783;DHT22;18351;47.560;9.708;2023-02-17T13:01:19;12.90;90.40
31783;DHT22;18351;47.560;9.708;2023-02-17T13:03:46;13.40;91.10
31783;DHT22;18351;47.560;9.708;2023-02-17T13:06:35;13.80;90.80
31783;DHT22;18351;47.560;9.708;2023-02-17T13:09:14;12.90;91.00
31783;DHT22;18351;47.560;9.708;2023-02-17T13:11:42;13.60;91.10
31783;DHT22;18351;47.560;9.708;2023-02-17T13:14:42;13.10;90.40
31783;DHT22;18351;47.560;9.708;2023-02-17T13:17:22;13.10;90.20
31783;DHT22;18351;47.560;9.708;2023-02-17T13:19:47;14.00;89.50
31783;DHT22;18351;47.560;9.708;2023-02-17T13:22:24;13.00;89.10
31783;DHT22;18351;47.560;9.708;2023-02-17T13:24:52;13.80;89.20
31783;DHT22;18351;47.560;9.708;2023-02-17T13:32:32;13.80;86.40
31783;DHT22;18351;47.560;9.708;2023-02-17T13:35:42;12.80;85.80
31783;DHT22;18351;47.560;9.708;2023-02-17T13:37:48;12.80;85.00
31783;DHT22;18351;47.560;9.708;2023-02-17T13:42:50;12.80;83.40
31783;DHT22;18351;47.560;9.708;2023-02-17T13:45:26;12.80;83.20
31783;DHT22;18351;47.560;9.708;2023-02-17T13:47:57;12.70;83.60
31783;DHT22;18351;47.560;9.708;2023-02-17T13:50:32;13.50;85.10
31783;DHT22;18351;47.560;9.708;2023-02-17T13:52:59;12.60;85.70
31783;DHT22;18351;47.560;9.708;2023-02-17T13:55:25;13.30;87.00
31783;DHT22;18351;47.560;9.708;2023-02-17T13:57:58;13.10;88.30
31783;DHT22;18351;47.560;9.708;2023-02-17T14:00:29;13.10;89.00
31783;DHT22;18351;47.560;9.708;2023-02-17T14:03:16;12.40;88.40
31783;DHT22;18351;47.560;9.708;2023-02-17T14:05:45;12.40;87.20
31783;DHT22;18351;47.560;9.708;2023-02-17T14:08:37;12.30;87.00
31783;DHT22;18351;47.560;9.708;2023-02-17T14:13:35;12.20;87.40
31783;DHT22;18351;47.560;9.708;2023-02-17T14:16:01;12.60;86.90
31783;DHT22;18351;47.560;9.708;2023-02-17T14:18:40;12.20;86.40
31783;DHT22;18351;47.560;9.708;2023-02-17T14:21:23;12.80;86.20
31783;DHT22;18351;47.560;9.708;2023-02-17T14:23:51;12.70;87.10
31783;DHT22;18351;47.560;9.708;2023-02-17T14:26:38;12.50;87.80
31783;DHT22;18351;47.560;9.708;2023-02-17T14:29:06;12.10;88.20
31783;DHT22;18351;47.560;9.708;2023-02-17T14:31:47;12.80;89.20
31783;DHT22;18351;47.560;9.708;2023-02-17T14:34:26;12.70;89.20
31783;DHT22;18351;47.560;9.708;2023-02-17T14:36:52;12.00;89.40
31783;DHT22;18351;47.560;9.708;2023-02-17T14:39:18;12.60;90.20
31783;DHT22;18351;47.560;9.708;2023-02-17T14:41:43;12.90;90.70
31783;DHT22;18351;47.560;9.708;2023-02-17T14:44:09;12.60;90.50
31783;DHT22;18351;47.560;9.708;2023-02-17T14:46:35;11.90;90.80
31783;DHT22;18351;47.560;9.708;2023-02-17T14:49:01;12.00;91.20
31783;DHT22;18351;47.560;9.708;2023-02-17T14:51:35;12.30;91.30
31783;DHT22;18351;47.560;9.708;2023-02-17T14:54:02;11.90;90.90
31783;DHT22;18351;47.560;9.708;2023-02-17T14:56:37;11.80;91.20
31783;DHT22;18351;47.560;9.708;2023-02-17T14:59:05;12.80;91.90
31783;DHT22;18351;47.560;9.708;2023-02-17T15:01:31;12.70;92.00
31783;DHT22;18351;47.560;9.708;2023-02-17T15:03:57;12.00;91.90
31783;DHT22;18351;47.560;9.708;2023-02-17T15:06:43;11.90;91.90
31783;DHT22;18351;47.560;9.708;2023-02-17T15:09:15;11.80;91.80
31783;DHT22;18351;47.560;9.708;2023-02-17T15:11:42;12.60;92.20
31783;DHT22;18351;47.560;9.708;2023-02-17T15:14:16;12.90;92.40
31783;DHT22;18351;47.560;9.708;2023-02-17T15:16:43;12.70;92.50
31783;DHT22;18351;47.560;9.708;2023-02-17T15:19:10;13.00;93.00
31783;DHT22;18351;47.560;9.708;2023-02-17T15:21:37;12.70;93.10
31783;DHT22;18351;47.560;9.708;2023-02-17T15:24:17;12.20;93.30
31783;DHT22;18351;47.560;9.708;2023-02-17T15:26:43;12.40;94.10
31783;DHT22;18351;47.560;9.708;2023-02-17T15:29:20;12.70;94.50
31783;DHT22;18351;47.560;9.708;2023-02-17T15:31:47;11.80;94.90
31783;DHT22;18351;47.560;9.708;2023-02-17T15:34:15;12.00;95.40
31783;DHT22;18351;47.560;9.708;2023-02-17T15:36:41;11.90;95.90
31783;DHT22;18351;47.560;9.708;2023-02-17T15:39:09;12.00;95.90
31783;DHT22;18351;47.560;9.708;2023-02-17T15:41:35;11.70;96.00
31783;DHT22;18351;47.560;9.708;2023-02-17T15:44:01;12.70;96.50
31783;DHT22;18351;47.560;9.708;2023-02-17T15:46:31;12.80;96.90
31783;DHT22;18351;47.560;9.708;2023-02-17T15:48:58;12.40;96.90
31783;DHT22;18351;47.560;9.708;2023-02-17T15:51:24;12.10;97.30
31783;DHT22;18351;47.560;9.708;2023-02-17T15:53:50;12.60;97.90
31783;DHT22;18351;47.560;9.708;2023-02-17T15:56:19;12.10;98.30
31783;DHT22;18351;47.560;9.708;2023-02-17T15:58:45;12.30;98.70
31783;DHT22;18351;47.560;9.708;2023-02-17T16:03:49;11.60;99.70
31783;DHT22;18351;47.560;9.708;2023-02-17T16:06:14;11.60;99.90
31783;DHT22;18351;47.560;9.708;2023-02-17T16:08:40;11.60;99.90
31783;DHT22;18351;47.560;9.708;2023-02-17T16:11:11;11.60;99.90
31783;DHT22;18351;47.560;9.708;2023-02-17T16:13:38;11.60;99.90
31783;DHT22;18351;47.560;9.708;2023-02-17T16:16:18;11.60;99.90
31783;DHT22;18351;47.560;9.708;2023-02-17T16:18:46;11.60;99.90
31783;DHT22;18351;47.560;9.708;2023-02-17T16:21:12;11.50;99.90
31783;DHT22;18351;47.560;9.708;2023-02-17T16:23:39;11.50;99.90
31783;DHT22;18351;47.560;9.708;2023-02-17T16:26:13;11.40;99.90
31783;DHT22;18351;47.560;9.708;2023-02-17T16:28:39;11.40;99.90
31783;DHT22;18351;47.560;9.708;2023-02-17T16:31:05;11.30;99.90
31783;DHT22;18351;47.560;9.708;2023-02-17T16:33:30;11.20;99.90
31783;DHT22;18351;47.560;9.708;2023-02-17T16:35:56;11.20;99.90
31783;DHT22;18351;47.560;9.708;2023-02-17T16:38:22;11.10;99.90
31783;DHT22;18351;47.560;9.708;2023-02-17T16:40:50;11.10;99.90
31783;DHT22;18351;47.560;9.708;2023-02-17T16:43:18;11.00;99.90
31783;DHT22;18351;47.560;9.708;2023-02-17T16:45:52;11.00;99.90
31783;DHT22;18351;47.560;9.708;2023-02-17T16:48:23;10.90;99.90
31783;DHT22;18351;47.560;9.708;2023-02-17T16:50:50;11.20;99.90
31783;DHT22;18351;47.560;9.708;2023-02-17T16:53:15;10.80;99.90
31783;DHT22;18351;47.560;9.708;2023-02-17T16:55:41;10.80;99.90
31783;DHT22;18351;47.560;9.708;2023-02-17T16:58:19;10.70;99.90
31783;DHT22;18351;47.560;9.708;2023-02-17T17:00:48;10.70;99.90
31783;DHT22;18351;47.560;9.708;2023-02-17T17:03:16;10.60;99.90
31783;DHT22;18351;47.560;9.708;2023-02-17T17:05:42;10.50;99.90
31783;DHT22;18351;47.560;9.708;2023-02-17T17:08:12;10.60;99.90
31783;DHT22;18351;47.560;9.708;2023-02-17T17:10:41;10.50;99.90
31783;DHT22;18351;47.560;9.708;2023-02-17T17:13:07;10.50;99.90
31783;DHT22;18351;47.560;9.708;2023-02-17T17:15:36;10.50;99.90
31783;DHT22;18351;47.560;9.708;2023-02-17T17:18:05;10.40;99.90
31783;DHT22;18351;47.560;9.708;2023-02-17T17:20:34;10.40;99.90
31783;DHT22;18351;47.560;9.708;2023-02-17T17:23:03;10.40;99.90